createdAt,value
2023-05-22T00:00:25.883Z,25.79
2023-05-22T00:01:26.989Z,25.78
2023-05-22T00:02:24.740Z,25.79
2023-05-22T00:03:24.754Z,25.77
2023-05-22T00:04:24.842Z,25.73
2023-05-22T00:05:24.632Z,25.73
2023-05-22T00:06:24.546Z,25.69
2023-05-22T00:07:24.742Z,25.67
2023-05-22T00:08:25.810Z,25.70
2023-05-22T00:09:24.233Z,25.70
2023-05-22T00:10:24.378Z,25.70
2023-05-22T00:11:24.304Z,25.70
2023-05-22T00:12:25.092Z,25.65
2023-05-22T00:13:24.539Z,25.61
2023-05-22T00:14:24.379Z,25.61
2023-05-22T00:15:24.558Z,25.57
2023-05-22T00:16:24.499Z,25.60
2023-05-22T00:17:24.620Z,25.62
2023-05-22T00:18:24.726Z,25.61
2023-05-22T00:19:24.200Z,25.58
2023-05-22T00:20:24.825Z,25.56
2023-05-22T00:21:24.577Z,25.57
2023-05-22T00:22:24.602Z,25.57
2023-05-22T00:23:24.244Z,25.56
2023-05-22T00:24:29.760Z,25.52
2023-05-22T00:25:24.370Z,25.47
2023-05-22T00:26:24.357Z,25.45
2023-05-22T00:27:24.022Z,25.47
2023-05-22T00:28:24.530Z,25.46
2023-05-22T00:29:24.128Z,25.46
2023-05-22T00:30:32.951Z,25.46
2023-05-22T00:31:24.781Z,25.44
2023-05-22T00:32:24.670Z,25.46
2023-05-22T00:33:24.493Z,25.43
2023-05-22T00:34:24.532Z,25.44
2023-05-22T00:35:24.729Z,25.44
2023-05-22T00:36:24.563Z,25.40
2023-05-22T00:37:24.406Z,25.36
2023-05-22T00:38:24.698Z,25.35
2023-05-22T00:39:25.204Z,25.36
2023-05-22T00:40:25.092Z,25.38
2023-05-22T00:41:24.378Z,25.43
2023-05-22T00:42:24.413Z,25.40
2023-05-22T00:43:24.564Z,25.37
2023-05-22T00:44:24.732Z,25.35
2023-05-22T00:45:24.921Z,25.40
2023-05-22T00:46:24.966Z,25.39
2023-05-22T00:47:25.303Z,25.36
2023-05-22T00:48:24.376Z,25.33
2023-05-22T00:49:24.691Z,25.28
2023-05-22T00:50:24.952Z,25.26
2023-05-22T00:51:24.706Z,25.29
2023-05-22T00:52:43.920Z,25.25
2023-05-22T00:53:25.027Z,25.28
2023-05-22T00:54:24.775Z,25.26
2023-05-22T00:55:24.795Z,25.26
2023-05-22T00:56:24.459Z,25.27
2023-05-22T00:57:24.710Z,25.26
2023-05-22T00:58:24.505Z,25.26
2023-05-22T00:59:24.472Z,25.23
2023-05-22T01:00:25.761Z,25.21
2023-05-22T01:01:24.899Z,25.16
2023-05-22T01:02:24.525Z,25.12
2023-05-22T01:03:24.853Z,25.02
2023-05-22T01:04:24.697Z,25.00
2023-05-22T01:05:24.904Z,25.07
2023-05-22T01:06:25.136Z,25.11
2023-05-22T01:07:24.919Z,25.10
2023-05-22T01:08:24.792Z,25.11
2023-05-22T01:09:24.666Z,25.13
2023-05-22T01:10:24.756Z,25.08
2023-05-22T01:11:24.376Z,25.10
2023-05-22T01:12:24.415Z,25.11
2023-05-22T01:13:24.352Z,25.06
2023-05-22T01:14:24.537Z,25.01
2023-05-22T01:15:24.400Z,25.01
2023-05-22T01:16:24.450Z,25.02
2023-05-22T01:17:24.521Z,25.01
2023-05-22T01:18:24.514Z,25.01
2023-05-22T01:19:24.391Z,24.98
2023-05-22T01:20:24.584Z,24.85
2023-05-22T01:21:24.861Z,24.86
2023-05-22T01:22:24.969Z,24.90
2023-05-22T01:23:24.846Z,24.93
2023-05-22T01:24:24.804Z,24.95
2023-05-22T01:25:25.357Z,24.98
2023-05-22T01:26:24.522Z,24.99
2023-05-22T01:27:24.762Z,24.96
2023-05-22T01:28:25.186Z,24.89
2023-05-22T01:29:25.187Z,24.85
2023-05-22T01:30:24.939Z,24.85
2023-05-22T01:31:24.481Z,24.89
2023-05-22T01:32:24.774Z,24.91
2023-05-22T01:33:24.477Z,24.94
2023-05-22T01:34:25.059Z,24.95
2023-05-22T01:35:25.064Z,24.95
2023-05-22T01:36:24.702Z,24.87
2023-05-22T01:37:24.281Z,24.89
2023-05-22T01:38:24.998Z,24.84
2023-05-22T01:39:24.995Z,24.80
2023-05-22T01:40:24.926Z,24.81
2023-05-22T01:41:24.953Z,24.81
2023-05-22T01:42:24.675Z,24.78
2023-05-22T01:43:24.233Z,24.75
2023-05-22T01:44:24.745Z,24.78
2023-05-22T01:45:24.617Z,24.73
2023-05-22T01:46:24.796Z,24.72
2023-05-22T01:47:24.517Z,24.69
2023-05-22T01:48:24.605Z,24.70
2023-05-22T01:49:24.532Z,24.66
2023-05-22T01:50:24.782Z,24.67
2023-05-22T01:51:24.262Z,24.67
2023-05-22T01:52:25.006Z,24.66
2023-05-22T01:53:24.641Z,24.65
2023-05-22T01:54:24.421Z,24.63
2023-05-22T01:55:24.665Z,24.62
2023-05-22T01:56:24.423Z,24.60
2023-05-22T01:57:24.375Z,24.56
2023-05-22T01:58:24.424Z,24.51
2023-05-22T01:59:24.729Z,24.50
2023-05-22T02:00:26.534Z,24.54
2023-05-22T02:01:24.241Z,24.55
2023-05-22T02:02:24.386Z,24.58
2023-05-22T02:03:24.488Z,24.60
2023-05-22T02:04:24.624Z,24.59
2023-05-22T02:05:24.997Z,24.59
2023-05-22T02:06:24.896Z,24.56
2023-05-22T02:07:24.832Z,24.53
2023-05-22T02:08:24.730Z,24.51
2023-05-22T02:09:24.482Z,24.5
2023-05-22T02:10:24.742Z,24.5
2023-05-22T02:11:24.199Z,24.51
2023-05-22T02:12:25.146Z,24.48
2023-05-22T02:13:25.129Z,24.46
2023-05-22T02:14:24.801Z,24.47
2023-05-22T02:15:25.195Z,24.48
2023-05-22T02:16:24.996Z,24.47
2023-05-22T02:17:24.601Z,24.42
2023-05-22T02:18:24.705Z,24.42
2023-05-22T02:19:24.516Z,24.39
2023-05-22T02:20:25.191Z,24.41
2023-05-22T02:21:24.597Z,24.34
2023-05-22T02:22:24.869Z,24.33
2023-05-22T02:23:24.730Z,24.29
2023-05-22T02:24:24.712Z,24.28
2023-05-22T02:25:24.648Z,24.17
2023-05-22T02:26:24.426Z,24.26
2023-05-22T02:27:24.373Z,24.30
2023-05-22T02:28:24.830Z,24.28
2023-05-22T02:29:24.734Z,24.29
2023-05-22T02:30:25.251Z,24.28
2023-05-22T02:31:24.541Z,24.31
2023-05-22T02:32:24.972Z,24.32
2023-05-22T02:33:25.067Z,24.23
2023-05-22T02:34:24.601Z,24.23
2023-05-22T02:35:24.662Z,24.17
2023-05-22T02:36:24.663Z,24.15
2023-05-22T02:37:24.641Z,24.18
2023-05-22T02:38:24.380Z,24.21
2023-05-22T02:39:24.261Z,24.20
2023-05-22T02:40:25.125Z,24.21
2023-05-22T02:41:24.511Z,24.18
2023-05-22T02:42:24.341Z,24.19
2023-05-22T02:43:24.906Z,24.19
2023-05-22T02:44:24.613Z,24.10
2023-05-22T02:45:25.124Z,24.05
2023-05-22T02:46:24.981Z,24.07
2023-05-22T02:47:24.769Z,24.10
2023-05-22T02:48:24.951Z,24.07
2023-05-22T02:49:24.871Z,24.02
2023-05-22T02:50:25.306Z,24.06
2023-05-22T02:51:30.032Z,24.11
2023-05-22T02:52:25.035Z,24.11
2023-05-22T02:53:24.350Z,24.08
2023-05-22T02:54:24.358Z,24.03
2023-05-22T02:55:24.616Z,24.03
2023-05-22T02:56:24.665Z,24.04
2023-05-22T02:57:24.513Z,24.07
2023-05-22T02:58:24.410Z,24.08
2023-05-22T02:59:24.542Z,24.05
2023-05-22T03:00:25.859Z,23.99
2023-05-22T03:01:38.534Z,23.97
2023-05-22T03:02:25.001Z,23.95
2023-05-22T03:03:25.278Z,23.95
2023-05-22T03:04:24.529Z,23.99
2023-05-22T03:05:24.966Z,24.00
2023-05-22T03:06:25.046Z,24.02
2023-05-22T03:07:25.201Z,24.03
2023-05-22T03:08:24.519Z,24.02
2023-05-22T03:09:24.570Z,23.98
2023-05-22T03:10:24.913Z,23.97
2023-05-22T03:11:24.950Z,23.95
2023-05-22T03:12:24.693Z,23.93
2023-05-22T03:13:24.311Z,23.94
2023-05-22T03:14:25.075Z,23.94
2023-05-22T03:15:25.401Z,23.94
2023-05-22T03:16:24.465Z,23.94
2023-05-22T03:17:24.516Z,23.92
2023-05-22T03:18:27.267Z,23.94
2023-05-22T03:19:24.650Z,23.88
2023-05-22T03:20:24.861Z,23.90
2023-05-22T03:21:24.690Z,23.86
2023-05-22T03:22:24.576Z,23.87
2023-05-22T03:23:43.392Z,23.88
2023-05-22T03:24:24.210Z,23.86
2023-05-22T03:25:43.928Z,23.84
2023-05-22T03:26:24.613Z,23.85
2023-05-22T03:27:24.277Z,23.86
2023-05-22T03:28:25.004Z,23.88
2023-05-22T03:29:24.916Z,23.87
2023-05-22T03:30:24.832Z,23.85
2023-05-22T03:31:46.345Z,23.78
2023-05-22T03:32:25.160Z,23.80
2023-05-22T03:33:47.082Z,23.79
2023-05-22T03:34:25.193Z,23.82
2023-05-22T03:35:24.809Z,23.82
2023-05-22T03:36:24.628Z,23.79
2023-05-22T03:37:24.387Z,23.79
2023-05-22T03:38:24.272Z,23.72
2023-05-22T03:39:24.250Z,23.69
2023-05-22T03:40:24.583Z,23.68
2023-05-22T03:41:24.625Z,23.71
2023-05-22T03:42:24.562Z,23.68
2023-05-22T03:43:24.704Z,23.67
2023-05-22T03:44:24.691Z,23.66
2023-05-22T03:45:25.162Z,23.66
2023-05-22T03:46:25.350Z,23.67
2023-05-22T03:47:24.911Z,23.67
2023-05-22T03:48:24.985Z,23.70
2023-05-22T03:49:24.681Z,23.67
2023-05-22T03:50:24.841Z,23.67
2023-05-22T03:51:24.584Z,23.63
2023-05-22T03:52:24.525Z,23.67
2023-05-22T03:53:24.495Z,23.66
2023-05-22T03:54:24.620Z,23.64
2023-05-22T03:55:24.886Z,23.64
2023-05-22T03:56:24.821Z,23.59
2023-05-22T03:57:24.599Z,23.50
2023-05-22T03:58:24.686Z,23.50
2023-05-22T03:59:24.706Z,23.55
2023-05-22T04:00:27.017Z,23.55
2023-05-22T04:01:25.127Z,23.48
2023-05-22T04:02:25.356Z,23.48
2023-05-22T04:03:24.726Z,23.53
2023-05-22T04:04:24.920Z,23.53
2023-05-22T04:05:24.799Z,23.59
2023-05-22T04:06:24.723Z,23.61
2023-05-22T04:07:24.657Z,23.47
2023-05-22T04:08:24.752Z,23.51
2023-05-22T04:09:24.973Z,23.51
2023-05-22T04:10:25.126Z,23.51
2023-05-22T04:11:24.711Z,23.50
2023-05-22T04:12:25.013Z,23.52
2023-05-22T04:13:24.824Z,23.48
2023-05-22T04:14:25.031Z,23.51
2023-05-22T04:15:25.681Z,23.54
2023-05-22T04:16:25.673Z,23.57
2023-05-22T04:17:25.099Z,23.57
2023-05-22T04:18:25.034Z,23.62
2023-05-22T04:19:25.150Z,23.61
2023-05-22T04:20:24.723Z,23.60
2023-05-22T04:21:24.461Z,23.60
2023-05-22T04:22:24.651Z,23.59
2023-05-22T04:23:24.925Z,23.59
2023-05-22T04:24:25.051Z,23.60
2023-05-22T04:25:25.225Z,23.63
2023-05-22T04:26:25.103Z,23.64
2023-05-22T04:27:24.829Z,23.61
2023-05-22T04:28:24.968Z,23.62
2023-05-22T04:29:24.909Z,23.68
2023-05-22T04:30:25.111Z,23.64
2023-05-22T04:31:25.047Z,23.66
2023-05-22T04:32:25.253Z,23.71
2023-05-22T04:33:24.824Z,23.77
2023-05-22T04:34:24.606Z,23.75
2023-05-22T04:35:25.091Z,23.76
2023-05-22T04:36:24.325Z,23.79
2023-05-22T04:37:24.634Z,23.81
2023-05-22T04:38:25.188Z,23.86
2023-05-22T04:39:24.922Z,23.89
2023-05-22T04:40:25.363Z,23.87
2023-05-22T04:41:24.720Z,23.90
2023-05-22T04:42:24.756Z,23.95
2023-05-22T04:43:24.794Z,23.95
2023-05-22T04:44:25.116Z,23.99
2023-05-22T04:45:25.250Z,23.98
2023-05-22T04:46:25.098Z,24.01
2023-05-22T04:47:24.769Z,24.09
2023-05-22T04:48:24.928Z,24.15
2023-05-22T04:49:25.021Z,24.20
2023-05-22T04:50:25.266Z,24.22
2023-05-22T04:51:24.856Z,24.25
2023-05-22T04:52:25.183Z,24.31
2023-05-22T04:53:24.773Z,24.34
2023-05-22T04:54:25.025Z,24.43
2023-05-22T04:55:25.627Z,24.48
2023-05-22T04:56:35.634Z,24.51
2023-05-22T04:57:25.167Z,24.55
2023-05-22T04:58:25.168Z,24.61
2023-05-22T04:59:25.350Z,24.68
2023-05-22T05:00:25.862Z,24.75
2023-05-22T05:01:24.896Z,24.81
2023-05-22T05:02:25.032Z,24.89
2023-05-22T05:03:24.883Z,24.95
2023-05-22T05:04:25.143Z,25.01
2023-05-22T05:05:24.861Z,25.05
2023-05-22T05:06:24.929Z,25.08
2023-05-22T05:07:25.153Z,25.17
2023-05-22T05:08:25.073Z,25.23
2023-05-22T05:09:24.874Z,25.31
2023-05-22T05:10:25.157Z,25.32
2023-05-22T05:11:24.790Z,25.35
2023-05-22T05:12:24.988Z,25.40
2023-05-22T05:13:25.059Z,25.45
2023-05-22T05:14:24.497Z,25.48
2023-05-22T05:15:25.315Z,25.51
2023-05-22T05:16:24.583Z,25.59
2023-05-22T05:17:25.050Z,25.67
2023-05-22T05:18:24.801Z,25.70
2023-05-22T05:19:25.154Z,25.72
2023-05-22T05:20:25.004Z,25.78
2023-05-22T05:21:24.619Z,25.81
2023-05-22T05:22:24.984Z,25.85
2023-05-22T05:23:24.553Z,25.90
2023-05-22T05:24:24.908Z,25.96
2023-05-22T05:25:25.204Z,25.98
2023-05-22T05:26:25.163Z,26.01
2023-05-22T05:27:24.544Z,26.10
2023-05-22T05:28:24.669Z,26.13
2023-05-22T05:29:24.620Z,26.20
2023-05-22T05:30:25.268Z,26.25
2023-05-22T05:31:24.947Z,26.28
2023-05-22T05:32:25.409Z,26.28
2023-05-22T05:33:24.829Z,26.30
2023-05-22T05:34:25.157Z,26.27
2023-05-22T05:35:25.380Z,26.30
2023-05-22T05:36:24.385Z,26.37
2023-05-22T05:37:24.625Z,26.43
2023-05-22T05:38:24.879Z,26.48
2023-05-22T05:39:25.056Z,26.47
2023-05-22T05:40:24.616Z,26.51
2023-05-22T05:41:24.893Z,26.62
2023-05-22T05:42:25.097Z,26.65
2023-05-22T05:43:24.336Z,26.72
2023-05-22T05:44:24.590Z,26.76
2023-05-22T05:45:25.015Z,26.82
2023-05-22T05:46:24.769Z,26.89
2023-05-22T05:47:24.739Z,26.93
2023-05-22T05:48:25.229Z,26.97
2023-05-22T05:49:24.542Z,27.01
2023-05-22T05:50:25.175Z,27.05
2023-05-22T05:51:24.941Z,27.10
2023-05-22T05:52:24.839Z,27.14
2023-05-22T05:53:25.204Z,27.21
2023-05-22T05:54:25.053Z,27.23
2023-05-22T05:55:25.490Z,27.26
2023-05-22T05:56:24.931Z,27.29
2023-05-22T05:57:25.086Z,27.36
2023-05-22T05:58:24.745Z,27.45
2023-05-22T05:59:24.956Z,27.49
2023-05-22T06:00:25.784Z,27.51
2023-05-22T06:01:25.111Z,27.59
2023-05-22T06:02:25.175Z,27.67
2023-05-22T06:03:24.850Z,27.74
2023-05-22T06:04:25.453Z,27.81
2023-05-22T06:05:24.878Z,27.84
2023-05-22T06:06:24.695Z,27.82
2023-05-22T06:07:25.049Z,27.86
2023-05-22T06:08:25.023Z,27.94
2023-05-22T06:09:25.426Z,28.02
2023-05-22T06:10:24.892Z,28.11
2023-05-22T06:11:25.020Z,28.18
2023-05-22T06:12:25.117Z,28.31
2023-05-22T06:13:24.445Z,28.43
2023-05-22T06:14:24.560Z,28.51
2023-05-22T06:15:25.183Z,28.55
2023-05-22T06:16:25.033Z,28.57
2023-05-22T06:17:24.611Z,28.61
2023-05-22T06:18:25.016Z,28.69
2023-05-22T06:19:24.696Z,28.67
2023-05-22T06:20:25.065Z,28.65
2023-05-22T06:21:24.536Z,28.64
2023-05-22T06:22:24.856Z,28.55
2023-05-22T06:23:25.042Z,28.53
2023-05-22T06:24:25.237Z,28.5
2023-05-22T06:25:24.924Z,28.55
2023-05-22T06:26:24.930Z,28.48
2023-05-22T06:27:25.262Z,28.40
2023-05-22T06:28:24.689Z,28.36
2023-05-22T06:29:24.879Z,28.23
2023-05-22T06:30:38.951Z,28.17
2023-05-22T06:31:24.734Z,28.08
2023-05-22T06:32:25.271Z,28.03
2023-05-22T06:33:25.050Z,28.05
2023-05-22T06:34:24.690Z,28.07
2023-05-22T06:35:25.472Z,27.99
2023-05-22T06:36:24.758Z,27.90
2023-05-22T06:37:24.819Z,27.82
2023-05-22T06:38:25.048Z,27.76
2023-05-22T06:39:25.291Z,27.81
2023-05-22T06:40:24.711Z,27.83
2023-05-22T06:41:24.440Z,27.90
2023-05-22T06:42:25.089Z,27.94
2023-05-22T06:43:24.363Z,27.91
2023-05-22T06:44:24.638Z,27.89
2023-05-22T06:45:25.390Z,27.89
2023-05-22T06:46:26.133Z,27.92
2023-05-22T06:47:24.884Z,27.91
2023-05-22T06:48:25.152Z,27.90
2023-05-22T06:49:24.728Z,27.85
2023-05-22T06:50:25.279Z,27.81
2023-05-22T06:51:24.781Z,27.83
2023-05-22T06:52:25.331Z,27.83
2023-05-22T06:53:24.444Z,27.88
2023-05-22T06:54:24.825Z,27.90
2023-05-22T06:55:25.570Z,27.96
2023-05-22T06:56:24.873Z,28.04
2023-05-22T06:57:25.366Z,28.09
2023-05-22T06:58:25.063Z,28.15
2023-05-22T06:59:24.733Z,28.24
2023-05-22T07:00:26.144Z,28.31
2023-05-22T07:01:25.183Z,28.43
2023-05-22T07:02:24.844Z,28.53
2023-05-22T07:03:25.307Z,28.56
2023-05-22T07:04:25.072Z,28.60
2023-05-22T07:05:25.108Z,28.69
2023-05-22T07:06:24.764Z,28.78
2023-05-22T07:07:25.203Z,28.81
2023-05-22T07:08:24.643Z,28.82
2023-05-22T07:09:25.039Z,28.79
2023-05-22T07:10:24.945Z,28.79
2023-05-22T07:11:24.607Z,28.77
2023-05-22T07:12:24.592Z,28.79
2023-05-22T07:13:24.875Z,28.85
2023-05-22T07:14:24.973Z,28.95
2023-05-22T07:15:25.436Z,28.96
2023-05-22T07:16:24.563Z,28.97
2023-05-22T07:17:25.093Z,28.97
2023-05-22T07:18:25.109Z,28.95
2023-05-22T07:19:24.786Z,28.96
2023-05-22T07:20:25.157Z,28.95
2023-05-22T07:21:24.853Z,28.99
2023-05-22T07:22:24.883Z,29.01
2023-05-22T07:23:26.237Z,28.99
2023-05-22T07:24:24.600Z,28.97
2023-05-22T07:25:25.132Z,28.95
2023-05-22T07:26:24.354Z,28.90
2023-05-22T07:27:24.437Z,28.88
2023-05-22T07:28:24.831Z,28.94
2023-05-22T07:29:24.755Z,28.95
2023-05-22T07:30:25.419Z,28.99
2023-05-22T07:31:25.260Z,28.97
2023-05-22T07:32:25.288Z,28.94
2023-05-22T07:33:29.905Z,28.95
2023-05-22T07:34:25.094Z,28.98
2023-05-22T07:35:25.206Z,28.95
2023-05-22T07:36:24.513Z,28.94
2023-05-22T07:37:24.728Z,29.00
2023-05-22T07:38:24.857Z,29.02
2023-05-22T07:39:25.218Z,29.06
2023-05-22T07:40:26.465Z,29.12
2023-05-22T07:41:24.974Z,29.18
2023-05-22T07:42:25.125Z,29.19
2023-05-22T07:43:24.726Z,29.22
2023-05-22T07:44:24.803Z,29.27
2023-05-22T07:45:33.260Z,29.32
2023-05-22T07:46:24.927Z,29.36
2023-05-22T07:47:25.078Z,29.36
2023-05-22T07:48:24.923Z,29.36
2023-05-22T07:49:25.098Z,29.33
2023-05-22T07:50:25.094Z,29.36
2023-05-22T07:51:25.309Z,29.38
2023-05-22T07:52:24.989Z,29.36
2023-05-22T07:53:25.306Z,29.36
2023-05-22T07:54:24.812Z,29.35
2023-05-22T07:55:25.239Z,29.37
2023-05-22T07:56:25.030Z,29.32
2023-05-22T07:57:24.575Z,29.33
2023-05-22T07:58:24.698Z,29.33
2023-05-22T07:59:24.629Z,29.34
2023-05-22T08:00:25.806Z,29.33
2023-05-22T08:01:39.070Z,29.32
2023-05-22T08:02:24.536Z,29.32
2023-05-22T08:03:39.751Z,29.36
2023-05-22T08:04:24.810Z,29.40
2023-05-22T08:05:39.124Z,29.37
2023-05-22T08:06:24.759Z,29.35
2023-05-22T08:07:25.074Z,29.33
2023-05-22T08:08:24.501Z,29.35
2023-05-22T08:09:25.043Z,29.38
2023-05-22T08:10:26.470Z,29.44
2023-05-22T08:11:24.936Z,29.48
2023-05-22T08:12:25.128Z,29.52
2023-05-22T08:13:25.196Z,29.53
2023-05-22T08:14:24.691Z,29.48
2023-05-22T08:15:25.312Z,29.41
2023-05-22T08:16:25.014Z,29.44
2023-05-22T08:17:24.976Z,29.44
2023-05-22T08:18:25.244Z,29.48
2023-05-22T08:19:46.864Z,29.48
2023-05-22T08:20:25.811Z,29.46
2023-05-22T08:21:24.891Z,29.45
2023-05-22T08:22:25.258Z,29.46
2023-05-22T08:23:24.582Z,29.5
2023-05-22T08:24:25.182Z,29.5
2023-05-22T08:25:24.881Z,29.48
2023-05-22T08:26:25.058Z,29.46
2023-05-22T08:27:24.576Z,29.45
2023-05-22T08:28:24.727Z,29.44
2023-05-22T08:29:24.785Z,29.44
2023-05-22T08:30:25.630Z,29.43
2023-05-22T08:31:24.891Z,29.42
2023-05-22T08:32:25.205Z,29.43
2023-05-22T08:33:24.605Z,29.40
2023-05-22T08:34:24.790Z,29.40
2023-05-22T08:35:25.043Z,29.47
2023-05-22T08:36:25.039Z,29.53
2023-05-22T08:37:25.328Z,29.50
2023-05-22T08:38:24.992Z,29.51
2023-05-22T08:39:25.243Z,29.57
2023-05-22T08:40:24.737Z,29.64
2023-05-22T08:41:24.929Z,29.70
2023-05-22T08:42:25.055Z,29.68
2023-05-22T08:43:24.975Z,29.69
2023-05-22T08:44:25.130Z,29.72
2023-05-22T08:45:25.237Z,29.75
2023-05-22T08:46:24.461Z,29.76
2023-05-22T08:47:24.932Z,29.78
2023-05-22T08:48:24.993Z,29.72
2023-05-22T08:49:25.272Z,29.73
2023-05-22T08:50:25.080Z,29.76
2023-05-22T08:51:25.148Z,29.73
2023-05-22T08:52:25.496Z,29.69
2023-05-22T08:53:25.281Z,29.56
2023-05-22T08:54:24.644Z,29.53
2023-05-22T08:55:25.621Z,29.51
2023-05-22T08:56:26.697Z,29.47
2023-05-22T08:57:25.051Z,29.45
2023-05-22T08:58:25.611Z,29.44
2023-05-22T08:59:25.179Z,29.5
2023-05-22T09:00:25.771Z,29.51
2023-05-22T09:01:24.776Z,29.55
2023-05-22T09:02:24.813Z,29.54
2023-05-22T09:03:25.289Z,29.51
2023-05-22T09:04:24.832Z,29.54
2023-05-22T09:05:25.616Z,29.54
2023-05-22T09:06:25.023Z,29.60
2023-05-22T09:07:24.818Z,29.63
2023-05-22T09:08:24.990Z,29.59
2023-05-22T09:09:25.245Z,29.56
2023-05-22T09:10:25.266Z,29.48
2023-05-22T09:11:25.186Z,29.45
2023-05-22T09:12:24.797Z,29.45
2023-05-22T09:13:25.476Z,29.45
2023-05-22T09:14:24.975Z,29.44
2023-05-22T09:15:25.581Z,29.44
2023-05-22T09:16:25.151Z,29.47
2023-05-22T09:17:24.724Z,29.51
2023-05-22T09:18:25.191Z,29.56
2023-05-22T09:19:24.964Z,29.68
2023-05-22T09:20:25.103Z,29.64
2023-05-22T09:21:30.283Z,29.59
2023-05-22T09:22:25.253Z,29.64
2023-05-22T09:23:24.996Z,29.56
2023-05-22T09:24:24.986Z,29.54
2023-05-22T09:25:24.923Z,29.62
2023-05-22T09:26:25.279Z,29.55
2023-05-22T09:27:24.672Z,29.52
2023-05-22T09:28:25.136Z,29.51
2023-05-22T09:29:24.858Z,29.53
2023-05-22T09:30:25.848Z,29.54
2023-05-22T09:31:24.628Z,29.63
2023-05-22T09:32:25.230Z,29.77
2023-05-22T09:33:24.903Z,29.71
2023-05-22T09:34:24.867Z,29.70
2023-05-22T09:35:25.412Z,29.75
2023-05-22T09:36:25.085Z,29.95
2023-05-22T09:37:24.695Z,29.97
2023-05-22T09:38:25.014Z,30.19
2023-05-22T09:39:25.087Z,30.11
2023-05-22T09:40:25.381Z,29.95
2023-05-22T09:41:25.210Z,29.87
2023-05-22T09:42:24.760Z,30.17
2023-05-22T09:43:24.762Z,30.20
2023-05-22T09:44:25.314Z,30.13
2023-05-22T09:45:25.082Z,30.11
2023-05-22T09:46:24.907Z,30.22
2023-05-22T09:47:25.001Z,30.28
2023-05-22T09:48:24.835Z,30.30
2023-05-22T09:49:25.265Z,30.37
2023-05-22T09:50:24.984Z,30.39
2023-05-22T09:51:24.855Z,30.36
2023-05-22T09:52:25.581Z,30.51
2023-05-22T09:53:24.912Z,30.64
2023-05-22T09:54:24.602Z,30.45
2023-05-22T09:55:25.153Z,30.34
2023-05-22T09:56:37.796Z,30.28
2023-05-22T09:57:25.187Z,30.23
2023-05-22T09:58:24.797Z,30.27
2023-05-22T09:59:25.465Z,30.30
2023-05-22T10:00:25.725Z,30.20
2023-05-22T10:01:25.005Z,30.22
2023-05-22T10:02:29.892Z,30.22
2023-05-22T10:03:24.525Z,30.29
2023-05-22T10:04:25.234Z,30.18
2023-05-22T10:05:25.244Z,30.17
2023-05-22T10:06:30.356Z,30.17
2023-05-22T10:07:25.171Z,30.16
2023-05-22T10:08:26.606Z,30.28
2023-05-22T10:09:25.788Z,30.33
2023-05-22T10:10:33.241Z,30.35
2023-05-22T10:11:24.957Z,30.31
2023-05-22T10:12:32.849Z,30.44
2023-05-22T10:13:25.229Z,30.46
2023-05-22T10:14:24.625Z,30.45
2023-05-22T10:15:25.461Z,30.34
2023-05-22T10:16:24.731Z,30.18
2023-05-22T10:17:24.739Z,30.02
2023-05-22T10:18:25.186Z,29.99
2023-05-22T10:19:24.806Z,29.93
2023-05-22T10:20:25.729Z,29.93
2023-05-22T10:21:25.488Z,30.10
2023-05-22T10:22:38.972Z,30.11
2023-05-22T10:23:24.398Z,29.98
2023-05-22T10:24:24.988Z,30.03
2023-05-22T10:25:25.631Z,30.03
2023-05-22T10:26:39.198Z,29.96
2023-05-22T10:27:24.908Z,29.93
2023-05-22T10:28:24.631Z,29.94
2023-05-22T10:29:25.373Z,29.93
2023-05-22T10:30:25.441Z,29.97
2023-05-22T10:31:25.065Z,29.99
2023-05-22T10:32:44.405Z,29.95
2023-05-22T10:33:25.462Z,29.93
2023-05-22T10:34:26.004Z,30.00
2023-05-22T10:35:25.667Z,30.07
2023-05-22T10:36:45.465Z,29.88
2023-05-22T10:37:26.471Z,29.98
2023-05-22T10:38:24.929Z,30.01
2023-05-22T10:39:25.646Z,29.98
2023-05-22T10:40:25.583Z,30.01
2023-05-22T10:41:24.817Z,30.03
2023-05-22T10:42:43.996Z,30.03
2023-05-22T10:43:25.382Z,30.10
2023-05-22T10:44:24.802Z,30.18
2023-05-22T10:45:25.721Z,30.27
2023-05-22T10:46:25.061Z,30.27
2023-05-22T10:47:24.856Z,30.31
2023-05-22T10:48:25.200Z,30.35
2023-05-22T10:49:24.999Z,30.37
2023-05-22T10:50:25.627Z,30.36
2023-05-22T10:51:25.107Z,30.36
2023-05-22T10:52:25.120Z,30.45
2023-05-22T10:53:25.311Z,30.41
2023-05-22T10:54:24.921Z,30.27
2023-05-22T10:55:25.642Z,30.26
2023-05-22T10:56:25.757Z,30.39
2023-05-22T10:57:24.801Z,30.60
2023-05-22T10:58:24.588Z,30.51
2023-05-22T10:59:25.279Z,30.38
2023-05-22T11:00:25.899Z,30.36
2023-05-22T11:01:25.035Z,30.64
2023-05-22T11:02:25.276Z,30.60
2023-05-22T11:03:25.069Z,30.65
2023-05-22T11:04:24.925Z,30.62
2023-05-22T11:05:25.176Z,30.51
2023-05-22T11:06:25.049Z,30.45
2023-05-22T11:07:24.948Z,30.59
2023-05-22T11:08:25.125Z,30.48
2023-05-22T11:09:25.482Z,30.37
2023-05-22T11:10:25.234Z,30.29
2023-05-22T11:11:25.277Z,30.27
2023-05-22T11:12:25.423Z,30.25
2023-05-22T11:13:28.127Z,30.13
2023-05-22T11:14:25.483Z,30.08
2023-05-22T11:15:25.719Z,30.09
2023-05-22T11:16:25.524Z,30.28
2023-05-22T11:17:25.258Z,30.35
2023-05-22T11:18:24.786Z,30.26
2023-05-22T11:19:25.143Z,30.29
2023-05-22T11:20:25.124Z,30.36
2023-05-22T11:21:25.213Z,30.36
2023-05-22T11:22:24.865Z,30.28
2023-05-22T11:23:25.369Z,30.26
2023-05-22T11:24:24.687Z,30.26
2023-05-22T11:25:25.217Z,30.45
2023-05-22T11:26:27.183Z,30.40
2023-05-22T11:27:25.513Z,30.26
2023-05-22T11:28:25.199Z,30.23
2023-05-22T11:29:24.612Z,30.15
2023-05-22T11:30:25.393Z,30.20
2023-05-22T11:31:24.791Z,30.26
2023-05-22T11:32:24.953Z,30.31
2023-05-22T11:33:25.398Z,30.33
2023-05-22T11:34:24.915Z,30.31
2023-05-22T11:35:25.481Z,30.30
2023-05-22T11:36:24.968Z,30.27
2023-05-22T11:37:25.119Z,30.26
2023-05-22T11:38:24.612Z,30.26
2023-05-22T11:39:25.081Z,30.34
2023-05-22T11:40:25.459Z,30.35
2023-05-22T11:41:25.021Z,30.29
2023-05-22T11:42:24.770Z,30.20
2023-05-22T11:43:25.550Z,30.14
2023-05-22T11:44:25.026Z,30.20
2023-05-22T11:45:25.347Z,30.16
2023-05-22T11:46:25.008Z,30.17
2023-05-22T11:47:24.954Z,30.17
2023-05-22T11:48:25.030Z,30.17
2023-05-22T11:49:24.800Z,30.36
2023-05-22T11:50:40.864Z,30.18
2023-05-22T11:51:24.881Z,30.14
2023-05-22T11:52:25.541Z,30.11
2023-05-22T11:53:25.221Z,30.21
2023-05-22T11:54:24.937Z,30.28
2023-05-22T11:55:24.913Z,30.27
2023-05-22T11:56:25.248Z,30.32
2023-05-22T11:57:24.884Z,30.51
2023-05-22T11:58:24.937Z,30.62
2023-05-22T11:59:24.886Z,30.63
2023-05-22T12:00:26.592Z,30.56
2023-05-22T12:01:25.017Z,30.52
2023-05-22T12:02:24.873Z,30.55
2023-05-22T12:03:25.965Z,30.66
2023-05-22T12:04:24.832Z,30.74
2023-05-22T12:05:25.107Z,30.72
2023-05-22T12:06:24.788Z,30.70
2023-05-22T12:07:25.301Z,30.79
2023-05-22T12:08:25.055Z,30.89
2023-05-22T12:09:24.713Z,30.89
2023-05-22T12:10:25.586Z,30.92
2023-05-22T12:11:24.949Z,30.82
2023-05-22T12:12:24.923Z,30.83
2023-05-22T12:13:24.798Z,30.78
2023-05-22T12:14:25.369Z,30.83
2023-05-22T12:15:25.290Z,30.87
2023-05-22T12:16:24.744Z,30.93
2023-05-22T12:17:25.277Z,30.98
2023-05-22T12:18:24.779Z,31.07
2023-05-22T12:19:25.048Z,31.13
2023-05-22T12:20:25.849Z,31.21
2023-05-22T12:21:25.441Z,31.29
2023-05-22T12:22:25.233Z,31.37
2023-05-22T12:23:24.737Z,31.44
2023-05-22T12:24:25.220Z,31.48
2023-05-22T12:25:30.197Z,31.45
2023-05-22T12:26:24.859Z,31.39
2023-05-22T12:27:25.359Z,31.39
2023-05-22T12:28:24.806Z,31.40
2023-05-22T12:29:25.217Z,31.40
2023-05-22T12:30:25.218Z,31.5
2023-05-22T12:31:24.900Z,31.43
2023-05-22T12:32:25.653Z,31.31
2023-05-22T12:33:25.114Z,31.32
2023-05-22T12:34:24.853Z,31.44
2023-05-22T12:35:25.561Z,31.37
2023-05-22T12:36:25.175Z,31.33
2023-05-22T12:37:25.043Z,31.35
2023-05-22T12:38:24.947Z,31.33
2023-05-22T12:39:25.333Z,31.37
2023-05-22T12:40:24.865Z,31.44
2023-05-22T12:41:24.892Z,31.43
2023-05-22T12:42:25.277Z,31.39
2023-05-22T12:43:24.726Z,31.41
2023-05-22T12:44:25.332Z,31.33
2023-05-22T12:45:25.151Z,31.38
2023-05-22T12:46:24.919Z,31.40
2023-05-22T12:47:25.073Z,31.40
2023-05-22T12:48:24.767Z,31.51
2023-05-22T12:49:25.346Z,31.48
2023-05-22T12:50:25.107Z,31.41
2023-05-22T12:51:25.565Z,31.39
2023-05-22T12:52:25.178Z,31.39